Asian Infinity — 3EVP3 — position and weather

sailwx.info

Track history (hours):
 
Tides and Currents Weather Stations Pressure Air Temp Water Temp Dewpoint Dewpoint Depression Visibility Wind Speed Wind Dir Waves Ship Positions

Asian Infinity

Last reported at 2015-Jul-29 23:17 UTC. Time now 2015-Jul-30 18:14 UTC.
Position N 34°45' E 119°33'.

Length 104 m; draft 6.1 m.

Type: Cargo ship. MMSI: 351868000.

Date/timePositionNaut miles runAvg speedWind from/ knotsBaromVisibWave heightAir tempDewpointWater temp
2015-Jul-29 23:17N 34°45' E 119°33'7 3.2
2015-Jul-29 21:06N 34°50' E 119°40'0 0.0
2015-Jul-29 18:31N 34°50' E 119°40'0 0.0
2015-Jul-29 08:19N 34°50' E 119°40'2 0.4
2015-Jul-29 03:19N 34°50' E 119°42'1011.4
2015-Jul-29 02:23N 34°55' E 119°54'8 9.2
2015-Jul-29 01:33N 34°57' E 120°02'13 9.3
2015-Jul-29 00:11N 34°54' E 120°17'197 8.9
2015-Jul-28 02:10N 32°26' E 122°53'711.4
2015-Jul-28 01:32N 32°19' E 122°52'1311.9
2015-Jul-28 00:26N 32°05' E 122°51'1112.4
2015-Jul-27 23:33N 31°55' E 122°51'1312.5
2015-Jul-27 22:33N 31°42' E 122°51'1212.1
2015-Jul-27 21:33N 31°30' E 122°50'1211.6
2015-Jul-27 20:33N 31°18' E 122°50'1111.1
2015-Jul-27 19:33N 31°07' E 122°47'1110.7
2015-Jul-27 18:33N 31°06' E 122°35'1111.1
2015-Jul-27 17:33N 31°06' E 122°22'1414.2
2015-Jul-27 16:33N 31°12' E 122°08'1413.6
2015-Jul-27 15:33N 31°16' E 121°52'1212.2
2015-Jul-27 14:33N 31°21' E 121°39'8 8.1
2015-Jul-27 13:33N 31°22' E 121°30'0 0.1
2015-Jul-27 12:26N 31°22' E 121°30'0 0.0
2015-Jul-27 10:32N 31°22' E 121°30'0 0.0
2015-Jul-27 09:32N 31°22' E 121°30'0 0.0
2015-Jul-27 08:32N 31°22' E 121°30'0 0.0
2015-Jul-27 07:29N 31°22' E 121°30'0 0.0
2015-Jul-27 06:29N 31°22' E 121°30'0 0.0
2015-Jul-27 05:32N 31°22' E 121°30'0 0.0
2015-Jul-27 04:26N 31°22' E 121°30'0 0.0
2015-Jul-27 03:32N 31°22' E 121°30'0 0.0
2015-Jul-27 02:26N 31°22' E 121°30'0 0.0
2015-Jul-27 01:32N 31°22' E 121°30'0 0.0
2015-Jul-27 00:32N 31°22' E 121°30'0 0.0
2015-Jul-26 23:26N 31°22' E 121°30'0 0.0
2015-Jul-26 22:32N 31°22' E 121°30'0 0.0
2015-Jul-26 21:32N 31°22' E 121°30'0 0.0
2015-Jul-26 19:32N 31°22' E 121°30'0 0.0
2015-Jul-26 17:32N 31°22' E 121°30'0 0.0
2015-Jul-26 16:29N 31°22' E 121°30'0 0.0
2015-Jul-26 15:33N 31°22' E 121°30'3 2.9
2015-Jul-26 14:33N 31°24' E 121°32'8 8.3
2015-Jul-26 13:33N 31°20' E 121°41'1211.6
2015-Jul-26 12:33N 31°12' E 121°50'1211.6
2015-Jul-26 11:34N 31°05' E 122°01'1110.6
2015-Jul-26 10:33N 31°03' E 122°13'6 5.5
2015-Jul-26 09:33N 31°02' E 122°20'6 5.9
2015-Jul-26 08:33N 31°01' E 122°27'8 7.9
2015-Jul-26 07:33N 30°59' E 122°35'7 7.3
2015-Jul-26 06:32N 30°57' E 122°44'12 9.4
2015-Jul-26 05:19N 30°56' E 122°57'7 9.7
2015-Jul-26 04:33N 30°54' E 123°05'39 9.8
2015-Jul-26 00:32N 31°33' E 123°09'10 9.8
2015-Jul-25 23:33N 31°43' E 123°11'  
2015-Jul-23 10:33N 34°34' E 134°48'1010.5
2015-Jul-23 09:33N 34°37' E 134°60'1010.1
2015-Jul-23 08:33N 34°36' E 135°12'6 5.3
2015-Jul-23 07:22N 34°42' E 135°15'0 0.0
2015-Jul-23 06:28N 34°42' E 135°15'0 0.0
2015-Jul-23 05:28N 34°42' E 135°15'0 0.0
2015-Jul-23 04:22N 34°42' E 135°15'0 0.0
2015-Jul-23 03:28N 34°42' E 135°15'0 0.0
2015-Jul-23 02:28N 34°42' E 135°15'0 0.0
2015-Jul-23 01:28N 34°42' E 135°15'0 0.0
2015-Jul-23 00:22N 34°42' E 135°15'0 0.0
2015-Jul-22 23:28N 34°42' E 135°15'0 0.0
2015-Jul-22 22:28N 34°42' E 135°15'0 0.0
2015-Jul-22 21:28N 34°42' E 135°15'0 0.0
2015-Jul-22 20:16N 34°42' E 135°15'0 0.0
2015-Jul-22 19:28N 34°42' E 135°15'0 0.0
2015-Jul-22 18:28N 34°42' E 135°15'0 0.0
2015-Jul-22 17:28N 34°42' E 135°15'0 0.0
2015-Jul-22 16:28N 34°42' E 135°15'0 0.0
2015-Jul-22 15:28N 34°42' E 135°15'0 0.0
2015-Jul-22 14:28N 34°42' E 135°15'0 0.0
2015-Jul-22 13:28N 34°42' E 135°15'0 0.0
2015-Jul-22 12:28N 34°42' E 135°15'0 0.0
2015-Jul-22 11:28N 34°42' E 135°15'0 0.0
2015-Jul-22 10:10N 34°42' E 135°15'0 0.0
2015-Jul-22 09:28N 34°42' E 135°15'0 0.0
2015-Jul-22 08:28N 34°42' E 135°15'0 0.0
2015-Jul-22 07:22N 34°42' E 135°15'0 0.0
2015-Jul-22 06:28N 34°42' E 135°15'0 0.0
2015-Jul-22 05:28N 34°42' E 135°15'0 0.0
2015-Jul-22 04:28N 34°42' E 135°15'0 0.0
2015-Jul-22 03:28N 34°42' E 135°15'0 0.0
2015-Jul-22 02:28N 34°42' E 135°15'0 0.0
2015-Jul-22 01:28N 34°42' E 135°15'0 0.0
2015-Jul-22 00:28N 34°42' E 135°15'0 0.0
2015-Jul-21 23:28N 34°42' E 135°15'0 0.0
2015-Jul-21 22:28N 34°42' E 135°15'0 0.0
2015-Jul-21 21:16N 34°42' E 135°15'0 0.0
2015-Jul-21 20:22N 34°42' E 135°15'0 0.0
2015-Jul-21 19:10N 34°42' E 135°15'0 0.0
2015-Jul-21 18:28N 34°42' E 135°15'0 0.0
2015-Jul-21 16:22N 34°42' E 135°15'0 0.0
2015-Jul-21 15:22N 34°42' E 135°15'0 0.0
2015-Jul-21 14:28N 34°42' E 135°15'0 0.0
2015-Jul-21 13:28N 34°42' E 135°15'0 0.0
2015-Jul-21 12:22N 34°42' E 135°15'0 0.0
2015-Jul-21 11:28N 34°42' E 135°15'0 0.0
2015-Jul-21 10:28N 34°42' E 135°15'0 0.0
2015-Jul-21 09:28N 34°42' E 135°15'0 0.0
2015-Jul-21 08:28N 34°42' E 135°15'3 3.4
2015-Jul-21 07:33N 34°39' E 135°16'5 5.3
2015-Jul-21 06:33N 34°33' E 135°16'6 5.6
2015-Jul-21 05:33N 34°29' E 135°12'1111.3
2015-Jul-21 04:33N 34°21' E 135°01'1111.6
2015-Jul-21 03:33N 34°10' E 134°60'  
Track history (hours):
 
Tides and Currents Weather Stations Pressure Air Temp Water Temp Dewpoint Dewpoint Depression Visibility Wind Speed Wind Dir Waves Ship Positions

Asian Infinity

Last reported at 2015-Jul-29 23:17 UTC. Time now 2015-Jul-30 18:14 UTC.
Position N 34°45' E 119°33'.

Length 104 m; draft 6.1 m.

Type: Cargo ship. MMSI: 351868000.

Date/timePositionNaut miles runAvg speedWind from/ knotsBaromVisibWave heightAir tempDewpointWater temp
2015-Jul-29 23:17N 34°45' E 119°33'7 3.2
2015-Jul-29 21:06N 34°50' E 119°40'0 0.0
2015-Jul-29 18:31N 34°50' E 119°40'0 0.0
2015-Jul-29 08:19N 34°50' E 119°40'2 0.4
2015-Jul-29 03:19N 34°50' E 119°42'1011.4
2015-Jul-29 02:23N 34°55' E 119°54'8 9.2
2015-Jul-29 01:33N 34°57' E 120°02'13 9.3
2015-Jul-29 00:11N 34°54' E 120°17'197 8.9
2015-Jul-28 02:10N 32°26' E 122°53'711.4
2015-Jul-28 01:32N 32°19' E 122°52'1311.9
2015-Jul-28 00:26N 32°05' E 122°51'1112.4
2015-Jul-27 23:33N 31°55' E 122°51'1312.5
2015-Jul-27 22:33N 31°42' E 122°51'1212.1
2015-Jul-27 21:33N 31°30' E 122°50'1211.6
2015-Jul-27 20:33N 31°18' E 122°50'1111.1
2015-Jul-27 19:33N 31°07' E 122°47'1110.7
2015-Jul-27 18:33N 31°06' E 122°35'1111.1
2015-Jul-27 17:33N 31°06' E 122°22'1414.2
2015-Jul-27 16:33N 31°12' E 122°08'1413.6
2015-Jul-27 15:33N 31°16' E 121°52'1212.2
2015-Jul-27 14:33N 31°21' E 121°39'8 8.1
2015-Jul-27 13:33N 31°22' E 121°30'0 0.1
2015-Jul-27 12:26N 31°22' E 121°30'0 0.0
2015-Jul-27 10:32N 31°22' E 121°30'0 0.0
2015-Jul-27 09:32N 31°22' E 121°30'0 0.0
2015-Jul-27 08:32N 31°22' E 121°30'0 0.0
2015-Jul-27 07:29N 31°22' E 121°30'0 0.0
2015-Jul-27 06:29N 31°22' E 121°30'0 0.0
2015-Jul-27 05:32N 31°22' E 121°30'0 0.0
2015-Jul-27 04:26N 31°22' E 121°30'0 0.0
2015-Jul-27 03:32N 31°22' E 121°30'0 0.0
2015-Jul-27 02:26N 31°22' E 121°30'0 0.0
2015-Jul-27 01:32N 31°22' E 121°30'0 0.0
2015-Jul-27 00:32N 31°22' E 121°30'0 0.0
2015-Jul-26 23:26N 31°22' E 121°30'0 0.0
2015-Jul-26 22:32N 31°22' E 121°30'0 0.0
2015-Jul-26 21:32N 31°22' E 121°30'0 0.0
2015-Jul-26 19:32N 31°22' E 121°30'0 0.0
2015-Jul-26 17:32N 31°22' E 121°30'0 0.0
2015-Jul-26 16:29N 31°22' E 121°30'0 0.0
2015-Jul-26 15:33N 31°22' E 121°30'3 2.9
2015-Jul-26 14:33N 31°24' E 121°32'8 8.3
2015-Jul-26 13:33N 31°20' E 121°41'1211.6
2015-Jul-26 12:33N 31°12' E 121°50'1211.6
2015-Jul-26 11:34N 31°05' E 122°01'1110.6
2015-Jul-26 10:33N 31°03' E 122°13'6 5.5
2015-Jul-26 09:33N 31°02' E 122°20'6 5.9
2015-Jul-26 08:33N 31°01' E 122°27'8 7.9
2015-Jul-26 07:33N 30°59' E 122°35'7 7.3
2015-Jul-26 06:32N 30°57' E 122°44'12 9.4
2015-Jul-26 05:19N 30°56' E 122°57'7 9.7
2015-Jul-26 04:33N 30°54' E 123°05'39 9.8
2015-Jul-26 00:32N 31°33' E 123°09'10 9.8
2015-Jul-25 23:33N 31°43' E 123°11'  
2015-Jul-23 10:33N 34°34' E 134°48'1010.5
2015-Jul-23 09:33N 34°37' E 134°60'1010.1
2015-Jul-23 08:33N 34°36' E 135°12'6 5.3
2015-Jul-23 07:22N 34°42' E 135°15'0 0.0
2015-Jul-23 06:28N 34°42' E 135°15'0 0.0
2015-Jul-23 05:28N 34°42' E 135°15'0 0.0
2015-Jul-23 04:22N 34°42' E 135°15'0 0.0
2015-Jul-23 03:28N 34°42' E 135°15'0 0.0
2015-Jul-23 02:28N 34°42' E 135°15'0 0.0
2015-Jul-23 01:28N 34°42' E 135°15'0 0.0
2015-Jul-23 00:22N 34°42' E 135°15'0 0.0
2015-Jul-22 23:28N 34°42' E 135°15'0 0.0
2015-Jul-22 22:28N 34°42' E 135°15'0 0.0
2015-Jul-22 21:28N 34°42' E 135°15'0 0.0
2015-Jul-22 20:16N 34°42' E 135°15'0 0.0
2015-Jul-22 19:28N 34°42' E 135°15'0 0.0
2015-Jul-22 18:28N 34°42' E 135°15'0 0.0
2015-Jul-22 17:28N 34°42' E 135°15'0 0.0
2015-Jul-22 16:28N 34°42' E 135°15'0 0.0
2015-Jul-22 15:28N 34°42' E 135°15'0 0.0
2015-Jul-22 14:28N 34°42' E 135°15'0 0.0
2015-Jul-22 13:28N 34°42' E 135°15'0 0.0
2015-Jul-22 12:28N 34°42' E 135°15'0 0.0
2015-Jul-22 11:28N 34°42' E 135°15'0 0.0
2015-Jul-22 10:10N 34°42' E 135°15'0 0.0
2015-Jul-22 09:28N 34°42' E 135°15'0 0.0
2015-Jul-22 08:28N 34°42' E 135°15'0 0.0
2015-Jul-22 07:22N 34°42' E 135°15'0 0.0
2015-Jul-22 06:28N 34°42' E 135°15'0 0.0
2015-Jul-22 05:28N 34°42' E 135°15'0 0.0
2015-Jul-22 04:28N 34°42' E 135°15'0 0.0
2015-Jul-22 03:28N 34°42' E 135°15'0 0.0
2015-Jul-22 02:28N 34°42' E 135°15'0 0.0
2015-Jul-22 01:28N 34°42' E 135°15'0 0.0
2015-Jul-22 00:28N 34°42' E 135°15'0 0.0
2015-Jul-21 23:28N 34°42' E 135°15'0 0.0
2015-Jul-21 22:28N 34°42' E 135°15'0 0.0
2015-Jul-21 21:16N 34°42' E 135°15'0 0.0
2015-Jul-21 20:22N 34°42' E 135°15'0 0.0
2015-Jul-21 19:10N 34°42' E 135°15'0 0.0
2015-Jul-21 18:28N 34°42' E 135°15'0 0.0
2015-Jul-21 16:22N 34°42' E 135°15'0 0.0
2015-Jul-21 15:22N 34°42' E 135°15'0 0.0
2015-Jul-21 14:28N 34°42' E 135°15'0 0.0
2015-Jul-21 13:28N 34°42' E 135°15'0 0.0
2015-Jul-21 12:22N 34°42' E 135°15'0 0.0
2015-Jul-21 11:28N 34°42' E 135°15'0 0.0
2015-Jul-21 10:28N 34°42' E 135°15'0 0.0
2015-Jul-21 09:28N 34°42' E 135°15'0 0.0
2015-Jul-21 08:28N 34°42' E 135°15'3 3.4
2015-Jul-21 07:33N 34°39' E 135°16'5 5.3
2015-Jul-21 06:33N 34°33' E 135°16'6 5.6
2015-Jul-21 05:33N 34°29' E 135°12'1111.3
2015-Jul-21 04:33N 34°21' E 135°01'1111.6
2015-Jul-21 03:33N 34°10' E 134°60'  

Dump ship's entire track history